首页
METAR-TAF:

METAR-TAF

机场 :

策尔特韦格, 奥地利

纬度: 47-12N, 经度: 014-45E, 海拔: 677米

当前天气观测

该预报发布于40分钟前的16:50 UTC
风速3节,风向西转西北,在西南西北之间变化
温度 9°C
湿度 57%
气压 1016 hPa

METAR: LOXZ 171650Z 29003KT 220V320 30KM BKN180AC 09/01 Q1016

时间: 18:30 (17:30 UTC)

预报

该预报发布于6小时和15分钟前的11:15 UTC
预报有效从17日的 12点(UTC)到 17日的 21点(UTC)
风速3节,风向多变
能见度10公里或以上
少量云层高于20000英尺
多云层高于30000英尺

TAF: LOXZ 171115Z 1712/1721 VRB03KT 9999 FEW200 BKN300

超过4000个机场的气象观测和天气预报(METAR&TAF报告)。

可查询的气象台以黄色和红色小点在地图上表示。

将鼠标移到小点上方,可查看气象台名称。

然后点击查看天气观测和预报。

如需切换地图:点击带黑十字的绿色按钮放大地图;点击带横线的绿色按钮缩小地图;或者点击绿色箭头查看邻近地区的地图。


METAR-TAF: